Time;durP1;ratioP1;P1;durP2;ratioP2;P2;SDS_P1;SDS_P2;PMS_P1;PMS_P2;Temp;Humidity;BMP_temperature;BMP_pressure;BME280_temperature;BME280_humidity;BME280_pressure;Samples;Min_cycle;Max_cycle;Signal;HPM_P1;HPM_P2
2023/04/22 00:02:23;;;;;;;12.80;4.45;;;;;;;9.92;44.78;98732.81;7337690;19;20508;-69
2023/04/22 00:04:48;;;;;;;7.75;3.58;;;;;;;9.91;44.72;98726.66;7337590;19;20022;-68
2023/04/22 00:07:14;;;;;;;6.18;3.88;;;;;;;9.92;44.73;98746.97;7337569;19;20022;-69
2023/04/22 00:09:39;;;;;;;9.57;4.55;;;;;;;9.88;44.85;98736.69;7337208;19;20025;-71
2023/04/22 00:12:04;;;;;;;8.20;3.75;;;;;;;9.87;44.71;98737.66;7338595;19;20015;-69
2023/04/22 00:14:28;;;;;;;6.07;3.72;;;;;;;9.87;44.76;98737.66;7342783;19;20764;-68
2023/04/22 00:16:53;;;;;;;7.95;3.90;;;;;;;9.86;44.90;98743.97;7340581;19;20493;-69
2023/04/22 00:19:18;;;;;;;9.15;4.10;;;;;;;9.85;44.69;98745.78;7341688;19;20134;-68
2023/04/22 00:21:42;;;;;;;8.30;5.13;;;;;;;9.86;44.68;98754.59;7342413;19;20039;-71
2023/04/22 00:24:07;;;;;;;8.05;4.50;;;;;;;9.81;44.78;98753.19;7343188;19;20041;-70
2023/04/22 00:26:32;;;;;;;11.10;4.88;;;;;;;9.83;44.73;98745.91;7343169;19;20026;-72
2023/04/22 00:28:57;;;;;;;14.18;5.57;;;;;;;9.81;44.83;98742.53;7341911;19;20760;-70
2023/04/22 00:31:21;;;;;;;7.97;4.50;;;;;;;9.82;44.90;98748.69;7340631;19;20010;-68
2023/04/22 00:33:46;;;;;;;7.25;4.10;;;;;;;9.81;44.75;98747.03;7343906;19;20306;-68
2023/04/22 00:36:11;;;;;;;5.85;3.70;;;;;;;9.80;44.90;98745.34;7342836;19;20014;-67
2023/04/22 00:38:35;;;;;;;7.50;3.80;;;;;;;9.82;44.63;98752.19;7346189;19;20454;-68
2023/04/22 00:41:01;;;;;;;11.85;4.47;;;;;;;9.79;45.00;98744.47;7343046;19;20473;-72
2023/04/22 00:43:26;;;;;;;4.70;3.22;;;;;;;9.82;44.79;98751.34;7344139;19;20014;-68
2023/04/22 00:45:52;;;;;;;8.38;4.38;;;;;;;9.83;45.14;98751.22;7342813;19;20737;-71
2023/04/22 00:48:17;;;;;;;8.98;4.50;;;;;;;9.81;45.19;98752.34;7346015;19;20437;-71
2023/04/22 00:50:42;;;;;;;7.07;4.22;;;;;;;9.77;45.07;98746.41;7347180;19;20018;-70
2023/04/22 00:53:06;;;;;;;8.32;4.32;;;;;;;9.73;45.51;98738.81;7352454;19;20022;-71
2023/04/22 00:55:31;;;;;;;11.98;4.68;;;;;;;9.63;45.51;98746.69;7364864;19;20018;-68
2023/04/22 00:57:59;;;;;;;8.55;4.30;;;;;;;9.57;45.91;98749.88;7344126;19;20045;-69
2023/04/22 01:00:26;;;;;;;9.68;4.50;;;;;;;9.48;46.04;98747.94;7341475;19;20022;-68
2023/04/22 01:02:50;;;;;;;10.27;3.55;;;;;;;9.41;46.01;98744.09;7341731;19;20033;-67
2023/04/22 01:05:15;;;;;;;12.02;4.97;;;;;;;9.36;46.79;98741.84;7338021;19;20060;-65
2023/04/22 01:07:40;;;;;;;15.15;4.13;;;;;;;9.32;46.69;98750.16;7337887;19;20042;-65
2023/04/22 01:10:05;;;;;;;10.27;4.50;;;;;;;9.27;46.74;98752.34;7342097;19;20019;-68
2023/04/22 01:12:30;;;;;;;10.50;4.50;;;;;;;9.22;47.31;98757.19;7339894;19;20479;-67
2023/04/22 01:14:55;;;;;;;8.38;4.38;;;;;;;9.19;47.37;98739.66;7338371;19;20850;-70
2023/04/22 01:17:20;;;;;;;11.23;4.70;;;;;;;9.15;47.97;98740.88;7337629;19;20014;-68
2023/04/22 01:19:46;;;;;;;7.07;4.10;;;;;;;9.10;47.24;98741.25;7339835;19;20051;-67
2023/04/22 01:22:12;;;;;;;6.82;3.60;;;;;;;9.07;47.81;98745.97;7341972;19;20010;-67
2023/04/22 01:24:38;;;;;;;13.73;4.57;;;;;;;9.06;48.03;98741.59;7341983;19;20011;-72
2023/04/22 01:27:03;;;;;;;7.40;4.13;;;;;;;9.03;48.49;98734.72;7343450;19;20090;-74
2023/04/22 01:29:28;;;;;;;9.38;3.92;;;;;;;9.02;48.36;98732.19;7341424;19;20023;-74
2023/04/22 01:31:54;;;;;;;9.52;4.10;;;;;;;8.98;48.61;98739.56;7337960;19;20014;-68
2023/04/22 01:34:19;;;;;;;11.68;4.15;;;;;;;8.95;48.61;98741.63;7337430;19;20138;-67
2023/04/22 01:36:44;;;;;;;12.43;4.78;;;;;;;8.94;48.87;98743.41;7337408;19;20113;-67
2023/04/22 01:39:09;;;;;;;10.07;5.25;;;;;;;8.91;49.02;98738.38;7336140;19;20014;-73
2023/04/22 01:41:34;;;;;;;9.48;5.07;;;;;;;8.89;49.06;98731.47;7339452;19;20025;-65
2023/04/22 01:44:01;;;;;;;8.88;4.90;;;;;;;8.87;49.21;98738.72;7341637;19;20046;-71
2023/04/22 01:46:26;;;;;;;12.65;4.78;;;;;;;8.83;49.33;98735.44;7337424;19;20018;-70
2023/04/22 01:48:51;;;;;;;7.22;4.32;;;;;;;8.81;49.69;98742.69;7338968;19;20036;-71
2023/04/22 01:51:19;;;;;;;15.55;4.95;;;;;;;8.79;49.87;98735.84;7338053;19;20027;-72
2023/04/22 01:53:44;;;;;;;10.63;4.10;;;;;;;8.75;50.10;98729.91;7338497;19;20468;-71
2023/04/22 01:56:08;;;;;;;11.10;4.78;;;;;;;8.74;50.00;98734.38;7340530;19;20162;-73
2023/04/22 01:58:34;;;;;;;14.60;4.72;;;;;;;8.70;50.30;98730.25;7342960;19;20010;-74
2023/04/22 02:01:02;;;;;;;9.95;4.70;;;;;;;8.70;50.24;98734.72;7346304;19;20473;-73
2023/04/22 02:03:27;;;;;;;10.70;4.35;;;;;;;8.68;50.39;98739.34;7341208;19;20506;-71
2023/04/22 02:05:53;;;;;;;22.40;6.22;;;;;;;8.66;50.29;98734.13;7342144;19;20052;-75
2023/04/22 02:08:18;;;;;;;13.32;5.82;;;;;;;8.65;50.49;98728.94;7344839;19;20018;-76
2023/04/22 02:10:43;;;;;;;9.00;4.88;;;;;;;8.63;50.54;98733.50;7345871;19;20370;-76
2023/04/22 02:13:07;;;;;;;14.07;5.00;;;;;;;8.61;50.56;98732.78;7346236;19;20006;-75
2023/04/22 02:15:35;;;;;;;13.65;5.20;;;;;;;8.60;50.58;98739.91;7345930;19;20347;-72
2023/04/22 02:18:01;;;;;;;9.52;4.45;;;;;;;8.57;50.74;98737.50;7346970;19;20353;-72
2023/04/22 02:20:25;;;;;;;10.88;4.55;;;;;;;8.58;50.35;98735.66;7344079;19;20023;-73
2023/04/22 02:22:50;;;;;;;15.25;5.60;;;;;;;8.59;50.55;98740.03;7352261;19;20059;-72
2023/04/22 02:25:15;;;;;;;11.55;4.75;;;;;;;8.57;50.70;98734.84;7349515;19;20026;-73
2023/04/22 02:27:41;;;;;;;16.13;4.57;;;;;;;8.56;50.59;98741.13;7357470;19;20088;-74
2023/04/22 02:30:07;;;;;;;12.00;4.88;;;;;;;8.59;50.79;98734.72;7344424;19;20015;-71
2023/04/22 02:32:31;;;;;;;10.43;4.72;;;;;;;8.59;51.08;98738.22;7344309;19;20051;-66
2023/04/22 02:34:58;;;;;;;11.68;5.28;;;;;;;8.61;51.18;98735.44;7343280;19;20051;-65
2023/04/22 02:37:22;;;;;;;11.25;5.15;;;;;;;8.66;50.97;98739.44;7343478;19;20025;-65
2023/04/22 02:39:48;;;;;;;13.18;5.10;;;;;;;8.72;50.92;98740.75;7341260;19;20026;-65
2023/04/22 02:42:13;;;;;;;19.17;5.28;;;;;;;8.78;50.37;98747.44;7346207;19;20014;-74
2023/04/22 02:44:37;;;;;;;19.45;5.10;;;;;;;8.89;50.41;98744.78;7348076;19;20014;-72
2023/04/22 02:47:03;;;;;;;10.93;4.75;;;;;;;8.94;49.93;98747.91;7346610;19;20017;-73
2023/04/22 02:49:27;;;;;;;26.45;5.93;;;;;;;9.02;50.02;98743.69;7346793;19;20752;-72
2023/04/22 02:51:52;;;;;;;14.07;4.68;;;;;;;9.15;49.85;98750.66;7344802;19;20466;-72
2023/04/22 02:54:17;;;;;;;11.45;4.32;;;;;;;9.26;49.44;98743.50;7344722;19;20070;-73
2023/04/22 02:56:41;;;;;;;11.60;6.32;;;;;;;9.43;49.58;98744.81;7344080;19;20011;-73
2023/04/22 02:59:06;;;;;;;12.20;5.05;;;;;;;9.58;49.13;98751.56;7344875;19;20007;-72
2023/04/22 03:01:31;;;;;;;13.07;5.55;;;;;;;9.72;48.86;98743.28;7345065;19;20528;-72
2023/04/22 03:03:59;;;;;;;9.80;4.30;;;;;;;9.87;48.40;98753.66;7346064;19;20014;-73
2023/04/22 03:06:24;;;;;;;17.20;5.40;;;;;;;9.99;48.03;98740.16;7346228;19;20090;-72
2023/04/22 03:08:49;;;;;;;11.38;4.40;;;;;;;10.14;47.69;98743.38;7342659;19;20035;-70
2023/04/22 03:11:13;;;;;;;9.65;4.70;;;;;;;10.28;47.36;98742.22;7344924;19;20022;-70
2023/04/22 03:13:40;;;;;;;16.52;5.28;;;;;;;10.40;46.99;98742.03;7345151;19;20014;-72
2023/04/22 03:16:06;;;;;;;12.63;5.20;;;;;;;10.52;46.94;98743.66;7345952;19;20588;-70
2023/04/22 03:18:30;;;;;;;10.10;5.25;;;;;;;10.65;46.14;98754.09;7347321;19;20023;-70
2023/04/22 03:20:55;;;;;;;8.75;4.63;;;;;;;10.77;45.97;98753.03;7343891;19;20018;-67
2023/04/22 03:23:21;;;;;;;11.23;4.50;;;;;;;10.89;45.33;98752.00;7343646;19;20126;-67
2023/04/22 03:25:46;;;;;;;8.18;4.07;;;;;;;11.00;45.24;98753.72;7343811;19;20047;-66
2023/04/22 03:28:10;;;;;;;9.85;4.18;;;;;;;11.13;44.84;98750.81;7341581;19;20333;-68
2023/04/22 03:30:35;;;;;;;8.95;4.00;;;;;;;11.22;44.26;98756.19;7341703;19;20471;-66
2023/04/22 03:33:00;;;;;;;15.98;8.88;;;;;;;11.33;44.32;98754.41;7342077;19;20424;-64
2023/04/22 03:35:39;;;;;;;9.75;4.90;;;;;;;11.44;44.06;98757.78;7344563;19;20096;-72
2023/04/22 03:38:04;;;;;;;8.65;5.15;;;;;;;11.53;43.50;98756.97;7342733;19;20026;-66
2023/04/22 03:40:31;;;;;;;7.47;4.50;;;;;;;11.62;43.39;98753.47;7340332;19;20840;-65
2023/04/22 03:42:57;;;;;;;5.97;3.85;;;;;;;11.71;43.15;98748.31;7346133;19;20816;-66
2023/04/22 03:45:22;;;;;;;10.32;4.20;;;;;;;11.82;43.25;98753.56;7347782;19;20025;-67
2023/04/22 03:48:13;;;;;;;6.70;3.92;;;;;;;11.93;42.96;98764.94;7349727;19;20503;-66
2023/04/22 03:50:44;;;;;;;7.95;4.53;;;;;;;12.07;42.57;98760.19;7347197;19;20025;-67
2023/04/22 03:53:10;;;;;;;11.60;4.13;;;;;;;12.18;42.71;98760.03;7344544;19;20470;-65
2023/04/22 03:55:36;;;;;;;8.13;4.00;;;;;;;12.27;42.03;98759.19;7347221;19;20023;-64
2023/04/22 03:58:00;;;;;;;9.77;4.63;;;;;;;12.36;41.98;98758.31;7346690;19;20026;-64
2023/04/22 04:00:25;;;;;;;9.63;4.18;;;;;;;12.49;41.99;98764.22;7342672;19;20362;-63
2023/04/22 04:03:03;;;;;;;7.40;4.05;;;;;;;12.60;41.40;98757.88;7343214;19;20021;-65
2023/04/22 04:05:28;;;;;;;7.97;3.97;;;;;;;12.76;41.07;98759.94;7348496;19;20081;-64
2023/04/22 04:07:52;;;;;;;10.65;4.35;;;;;;;12.84;40.84;98758.22;7345729;19;20015;-64
2023/04/22 04:10:17;;;;;;;10.98;4.80;;;;;;;13.03;40.75;98770.69;7343476;19;20026;-66
2023/04/22 04:12:42;;;;;;;7.07;4.25;;;;;;;13.15;40.51;98763.34;7341924;19;20023;-68
2023/04/22 04:15:07;;;;;;;5.70;3.63;;;;;;;13.42;40.24;98768.75;7342197;19;20363;-65
2023/04/22 04:17:33;;;;;;;8.82;4.50;;;;;;;13.72;39.75;98764.88;7343222;19;20011;-65
2023/04/22 04:20:00;;;;;;;5.82;3.90;;;;;;;13.96;39.45;98769.66;7339982;19;20453;-66
2023/04/22 04:22:26;;;;;;;7.00;4.10;;;;;;;14.23;38.93;98760.69;7345358;19;20456;-65
2023/04/22 04:24:55;;;;;;;9.23;3.78;;;;;;;14.45;38.43;98765.59;7345089;19;20029;-65
2023/04/22 04:27:24;;;;;;;7.15;4.57;;;;;;;14.67;38.13;98769.66;7340427;19;20021;-64
2023/04/22 04:29:51;;;;;;;8.95;3.85;;;;;;;14.93;37.77;98769.63;7339997;19;20723;-66
2023/04/22 04:32:32;;;;;;;7.75;3.60;;;;;;;15.23;37.33;98766.47;7339766;19;20035;-65
2023/04/22 04:34:59;;;;;;;8.98;4.18;;;;;;;15.45;36.67;98762.38;7342726;19;20010;-66
2023/04/22 04:37:24;;;;;;;7.38;4.25;;;;;;;15.67;36.68;98774.41;7340187;19;20007;-66
2023/04/22 04:39:58;;;;;;;9.93;4.07;;;;;;;15.88;35.97;98764.03;7338340;19;20664;-65
2023/04/22 04:42:25;;;;;;;7.45;3.55;;;;;;;16.12;35.67;98768.63;7339274;19;20051;-65
2023/04/22 04:44:58;;;;;;;5.75;3.83;;;;;;;16.35;35.26;98769.66;7339634;19;20073;-65
2023/04/22 04:47:24;;;;;;;21.30;4.25;;;;;;;16.50;35.21;98783.25;7339389;19;20014;-64
2023/04/22 04:49:53;;;;;;;7.95;3.92;;;;;;;16.63;34.88;98762.94;7339796;19;20019;-66
2023/04/22 04:52:18;;;;;;;10.43;3.78;;;;;;;16.82;34.84;98764.44;7340271;19;20014;-65
2023/04/22 04:54:43;;;;;;;5.25;3.75;;;;;;;16.98;34.79;98768.97;7340371;19;20014;-66
2023/04/22 04:57:09;;;;;;;11.10;4.57;;;;;;;17.10;34.50;98770.28;7341353;19;20025;-66
2023/04/22 04:59:36;;;;;;;4.90;3.53;;;;;;;17.24;33.92;98768.72;7337688;19;20714;-65
2023/04/22 05:02:01;;;;;;;7.78;3.58;;;;;;;17.41;33.55;98773.03;7339249;19;20086;-64
2023/04/22 05:04:27;;;;;;;6.40;3.63;;;;;;;17.73;33.06;98778.31;7339352;19;20154;-64
2023/04/22 05:06:52;;;;;;;7.82;3.72;;;;;;;18.17;32.37;98775.06;7340551;19;20020;-65
2023/04/22 05:09:17;;;;;;;4.85;3.58;;;;;;;18.76;31.89;98772.56;7339408;19;20019;-66
2023/04/22 05:11:44;;;;;;;10.23;4.78;;;;;;;19.30;31.50;98765.06;7338868;19;20017;-64
2023/04/22 05:14:14;;;;;;;10.02;5.45;;;;;;;19.70;31.08;98771.91;7338966;19;20021;-66
2023/04/22 05:16:41;;;;;;;9.48;3.97;;;;;;;20.04;30.84;98770.44;7338710;19;20014;-65
2023/04/22 05:19:07;;;;;;;6.50;3.60;;;;;;;20.23;30.31;98773.34;7338142;19;20015;-65
2023/04/22 05:21:33;;;;;;;7.57;3.45;;;;;;;20.57;29.70;98788.91;7339934;19;20015;-66
2023/04/22 05:23:58;;;;;;;5.85;3.20;;;;;;;20.83;29.22;98771.22;7343222;19;20338;-66
2023/04/22 05:26:23;;;;;;;5.72;3.50;;;;;;;21.14;29.39;98776.25;7342938;19;20381;-65
2023/04/22 05:28:48;;;;;;;9.65;3.85;;;;;;;21.35;28.23;98776.19;7344104;19;20102;-66
2023/04/22 05:31:14;;;;;;;5.68;3.72;;;;;;;21.58;28.20;98775.91;7342539;19;20070;-65
2023/04/22 05:33:39;;;;;;;6.60;4.10;;;;;;;21.94;27.77;98765.63;7346268;19;20070;-66
2023/04/22 05:36:05;;;;;;;6.95;3.50;;;;;;;22.02;27.23;98767.34;7348936;19;20015;-67
2023/04/22 05:38:29;;;;;;;9.80;2.75;;;;;;;22.09;26.60;98776.38;7352376;19;20549;-66
2023/04/22 05:40:54;;;;;;;2.83;2.17;;;;;;;22.24;26.22;98774.31;7348091;19;20029;-66
2023/04/22 05:43:19;;;;;;;7.65;2.95;;;;;;;22.37;25.57;98770.78;7348412;19;20022;-65
2023/04/22 05:45:50;;;;;;;6.82;3.00;;;;;;;22.56;25.51;98774.59;7348982;19;20026;-66
2023/04/22 05:48:16;;;;;;;4.55;3.17;;;;;;;22.32;25.44;98768.69;7347981;19;20018;-66
2023/04/22 05:50:50;;;;;;;10.23;3.50;;;;;;;22.71;25.54;98765.19;7351938;19;20019;-66
2023/04/22 05:53:16;;;;;;;8.02;2.95;;;;;;;23.28;24.88;98757.44;7348384;19;20021;-64
2023/04/22 05:55:41;;;;;;;10.68;3.45;;;;;;;23.83;24.60;98765.03;7347184;19;20049;-66
2023/04/22 05:58:07;;;;;;;3.80;2.90;;;;;;;24.31;23.94;98763.75;7345154;19;20042;-64
2023/04/22 06:00:49;;;;;;;6.40;2.83;;;;;;;24.76;23.06;98772.66;7346005;19;20026;-64
2023/04/22 06:03:34;;;;;;;;;;;;;;;25.45;23.97;98774.38;7346856;19;20014;-66
2023/04/22 06:06:00;;;;;;;4.63;2.33;;;;;;;25.12;22.61;98767.34;7352734;19;20332;-67
2023/04/22 06:08:24;;;;;;;4.72;2.67;;;;;;;24.98;23.04;98765.81;7353556;19;20477;-67
2023/04/22 06:10:49;;;;;;;7.10;2.38;;;;;;;25.08;22.49;98768.03;7354143;19;20042;-64
2023/04/22 06:13:14;;;;;;;3.92;2.80;;;;;;;25.27;22.50;98770.56;7348603;19;20031;-65
2023/04/22 06:15:39;;;;;;;3.22;2.70;;;;;;;25.52;22.01;98772.41;7347139;19;20007;-65
2023/04/22 06:18:04;;;;;;;5.35;3.22;;;;;;;25.66;21.95;98763.88;7345235;19;20010;-65
2023/04/22 06:20:31;;;;;;;4.90;2.83;;;;;;;25.81;21.85;98766.22;7344974;19;20010;-67
2023/04/22 06:22:56;;;;;;;4.15;2.85;;;;;;;26.10;21.54;98769.19;7346833;19;20025;-64
2023/04/22 06:25:21;;;;;;;3.42;2.70;;;;;;;26.50;21.45;98769.53;7347866;19;20442;-65
2023/04/22 06:27:46;;;;;;;4.30;2.63;;;;;;;27.06;20.96;98767.16;7348593;19;20011;-64
2023/04/22 06:30:12;;;;;;;4.15;2.95;;;;;;;28.05;20.34;98767.16;7344031;19;20449;-64
2023/04/22 06:32:38;;;;;;;8.18;3.40;;;;;;;28.79;19.41;98765.28;7348375;19;20501;-64
2023/04/22 06:35:03;;;;;;;4.65;3.10;;;;;;;29.20;19.20;98759.41;7345975;19;20465;-64
2023/04/22 06:37:29;;;;;;;5.15;3.00;;;;;;;29.63;19.12;98757.84;7348263;19;20424;-64
2023/04/22 06:39:54;;;;;;;4.85;3.13;;;;;;;30.20;18.66;98768.47;7348261;19;20047;-64
2023/04/22 06:42:37;;;;;;;4.90;2.83;;;;;;;30.83;18.11;98758.66;7347928;19;20393;-64
2023/04/22 06:45:34;;;;;;;4.30;3.13;;;;;;;31.40;17.78;98756.91;7348246;19;20010;-66
2023/04/22 06:48:16;;;;;;;4.53;3.42;;;;;;;31.94;17.64;98755.84;7343467;19;20029;-64
2023/04/22 06:51:03;;;;;;;4.57;3.17;;;;;;;32.23;17.07;98756.25;7346892;19;20011;-65
2023/04/22 06:53:29;;;;;;;11.23;4.32;;;;;;;32.27;17.13;98749.09;7345818;19;20014;-66
2023/04/22 06:55:54;;;;;;;6.53;3.28;;;;;;;32.20;16.83;98752.09;7344270;19;20025;-66
2023/04/22 06:58:19;;;;;;;6.13;3.55;;;;;;;32.69;16.59;98746.94;7343308;19;20029;-66
2023/04/22 07:00:44;;;;;;;3.47;3.10;;;;;;;32.74;16.13;98746.97;7343598;19;20041;-65
2023/04/22 07:03:09;;;;;;;5.38;3.85;;;;;;;32.60;16.50;98754.13;7345016;19;20014;-65
2023/04/22 07:05:34;;;;;;;6.90;3.40;;;;;;;32.86;16.26;98748.63;7345351;19;20058;-65
2023/04/22 07:08:00;;;;;;;5.13;3.28;;;;;;;33.29;16.09;98741.75;7344008;19;20027;-64
2023/04/22 07:10:25;;;;;;;5.80;3.75;;;;;;;33.18;15.99;98749.19;7343466;19;20042;-63
2023/04/22 07:13:08;;;;;;;6.32;3.72;;;;;;;33.22;15.96;98744.75;7345870;19;20018;-63
2023/04/22 07:15:33;;;;;;;6.75;3.97;;;;;;;32.37;16.26;98760.97;7343457;19;20022;-64
2023/04/22 07:17:58;;;;;;;7.88;4.50;;;;;;;32.49;16.40;98757.97;7341806;19;20345;-64
2023/04/22 07:20:22;;;;;;;7.43;3.50;;;;;;;31.59;16.79;98750.97;7341251;19;20022;-65
2023/04/22 07:22:47;;;;;;;8.40;4.05;;;;;;;29.65;17.61;98754.84;7342010;19;20049;-63
2023/04/22 07:25:12;;;;;;;5.90;3.00;;;;;;;27.71;19.15;98753.31;7342143;19;20902;-64
2023/04/22 07:27:37;;;;;;;6.13;3.53;;;;;;;25.85;20.33;98763.84;7346803;19;20033;-64
2023/04/22 07:30:02;;;;;;;4.57;3.17;;;;;;;24.83;21.61;98765.28;7343552;19;20014;-65
2023/04/22 07:32:30;;;;;;;8.85;3.25;;;;;;;24.57;21.99;98766.31;7342967;19;20386;-64
2023/04/22 07:34:55;;;;;;;6.47;3.40;;;;;;;23.86;22.48;98766.47;7343678;19;20020;-63
2023/04/22 07:37:21;;;;;;;4.65;3.50;;;;;;;22.94;23.32;98772.09;7344007;19;20082;-64
2023/04/22 07:39:45;;;;;;;8.02;3.03;;;;;;;22.00;24.30;98767.59;7341629;19;20017;-65
2023/04/22 07:42:11;;;;;;;8.25;3.70;;;;;;;21.24;25.57;98774.03;7342902;19;20018;-65
2023/04/22 07:44:36;;;;;;;7.97;3.60;;;;;;;20.54;25.92;98769.53;7343283;19;20022;-65
2023/04/22 07:47:00;;;;;;;10.13;3.10;;;;;;;20.04;26.91;98775.84;7345402;19;20018;-64
2023/04/22 07:49:25;;;;;;;6.45;2.97;;;;;;;19.90;26.74;98775.69;7346995;19;20368;-65
2023/04/22 07:51:50;;;;;;;7.93;4.57;;;;;;;20.88;25.90;98774.19;7345644;19;20021;-66
2023/04/22 07:54:15;;;;;;;9.60;3.42;;;;;;;22.38;24.28;98765.16;7345602;19;20116;-66
2023/04/22 07:56:40;;;;;;;10.55;3.30;;;;;;;23.83;23.21;98766.91;7343203;19;20014;-67
2023/04/22 07:59:05;;;;;;;5.63;3.65;;;;;;;25.97;21.20;98764.75;7341592;19;20017;-65
2023/04/22 08:01:30;;;;;;;6.93;3.00;;;;;;;28.51;19.02;98761.50;7341461;19;20011;-67
2023/04/22 08:03:55;;;;;;;3.35;2.83;;;;;;;30.11;17.54;98759.84;7342912;19;20105;-66
2023/04/22 08:06:20;;;;;;;5.97;3.55;;;;;;;30.94;16.93;98752.97;7346204;19;20022;-66
2023/04/22 08:08:45;;;;;;;3.83;2.50;;;;;;;31.43;16.62;98746.47;7343160;19;20011;-66
2023/04/22 08:11:09;;;;;;;3.90;2.53;;;;;;;31.77;16.23;98745.03;7342774;19;20035;-66
2023/04/22 08:13:34;;;;;;;6.25;3.08;;;;;;;30.72;16.64;98754.97;7344607;19;20373;-66
2023/04/22 08:15:59;;;;;;;3.80;3.45;;;;;;;29.51;17.32;98768.09;7343010;19;20090;-66
2023/04/22 08:18:24;;;;;;;5.15;2.95;;;;;;;28.41;18.37;98765.97;7343221;19;20745;-66
2023/04/22 08:20:49;;;;;;;5.70;3.00;;;;;;;27.56;19.28;98752.97;7338952;19;20363;-67
2023/04/22 08:23:14;;;;;;;6.75;3.15;;;;;;;27.25;19.29;98756.09;7343319;19;20322;-67
2023/04/22 08:25:38;;;;;;;6.03;3.30;;;;;;;27.28;18.85;98750.13;7342194;19;20018;-66
2023/04/22 08:28:03;;;;;;;7.50;3.33;;;;;;;27.60;18.88;98756.09;7341941;19;20018;-67
2023/04/22 08:30:28;;;;;;;4.18;2.92;;;;;;;28.94;17.92;98754.56;7341869;19;20431;-66
2023/04/22 08:32:53;;;;;;;5.95;2.47;;;;;;;30.63;16.55;98760.13;7341744;19;20017;-67
2023/04/22 08:35:19;;;;;;;5.75;3.58;;;;;;;32.54;15.69;98749.69;7341836;19;20015;-67
2023/04/22 08:37:44;;;;;;;3.53;2.63;;;;;;;33.29;14.95;98750.84;7342156;19;20477;-66
2023/04/22 08:40:09;;;;;;;3.70;3.08;;;;;;;33.47;15.16;98744.72;7340723;19;20465;-66
2023/04/22 08:42:34;;;;;;;5.68;2.70;;;;;;;34.36;14.61;98753.25;7345736;19;20019;-66
2023/04/22 08:45:01;;;;;;;4.68;3.45;;;;;;;35.07;13.88;98759.13;7342501;19;20045;-66
2023/04/22 08:47:33;;;;;;;6.25;3.40;;;;;;;35.73;13.70;98754.88;7340105;19;20440;-68
2023/04/22 08:50:02;;;;;;;6.43;4.05;;;;;;;36.75;12.99;98796.06;7341274;19;20022;-66
2023/04/22 08:52:30;;;;;;;4.53;3.55;;;;;;;38.01;12.35;98754.03;7341571;19;20019;-65
2023/04/22 08:54:55;;;;;;;3.90;3.55;;;;;;;39.42;11.67;98754.63;7341849;19;20349;-65
2023/04/22 08:57:20;;;;;;;9.95;4.40;;;;;;;40.05;11.71;98747.88;7341075;19;20390;-66
2023/04/22 08:59:45;;;;;;;10.95;4.65;;;;;;;39.31;12.22;98753.22;7342215;19;20339;-66
2023/04/22 09:02:16;;;;;;;6.72;4.15;;;;;;;37.23;12.98;98755.81;7339524;19;20110;-66
2023/04/22 09:04:42;;;;;;;9.77;3.65;;;;;;;34.15;14.16;98745.03;7348941;19;20019;-65
2023/04/22 09:07:07;;;;;;;5.32;3.30;;;;;;;31.68;15.38;98746.63;7346883;19;20018;-65
2023/04/22 09:09:32;;;;;;;7.53;3.53;;;;;;;29.22;17.44;98762.72;7342942;19;20063;-66
2023/04/22 09:11:57;;;;;;;4.30;3.13;;;;;;;27.59;18.24;98751.69;7341431;19;20025;-65
2023/04/22 09:14:22;;;;;;;11.95;3.40;;;;;;;26.08;19.76;98765.88;7341223;19;20014;-67
2023/04/22 09:16:48;;;;;;;8.68;3.25;;;;;;;24.86;20.39;98752.03;7341531;19;20031;-65
2023/04/22 09:19:14;;;;;;;3.20;2.85;;;;;;;23.94;21.67;98759.94;7340363;19;20474;-66
2023/04/22 09:21:40;;;;;;;5.03;2.60;;;;;;;23.25;21.65;98761.41;7339927;19;20014;-64
2023/04/22 09:24:07;;;;;;;4.50;2.88;;;;;;;22.70;22.17;98765.38;7340734;19;20015;-65
2023/04/22 09:26:33;;;;;;;4.10;2.55;;;;;;;22.25;22.82;98756.97;7340635;19;20014;-64
2023/04/22 09:28:59;;;;;;;4.03;2.85;;;;;;;22.04;22.91;98747.13;7340718;19;20478;-65
2023/04/22 09:31:26;;;;;;;4.15;2.80;;;;;;;22.75;22.47;98755.59;7340811;19;20074;-67
2023/04/22 09:33:56;;;;;;;9.95;3.00;;;;;;;24.51;21.15;98756.28;7340971;19;20045;-66
2023/04/22 09:36:26;;;;;;;10.05;3.70;;;;;;;27.35;18.82;98750.84;7341010;19;20473;-68
2023/04/22 09:38:56;;;;;;;2.97;2.75;;;;;;;30.38;16.97;98743.34;7342938;19;20025;-66
2023/04/22 09:41:31;;;;;;;3.20;2.90;;;;;;;33.46;15.46;98733.94;7342530;19;20114;-65
2023/04/22 09:43:57;;;;;;;3.90;3.30;;;;;;;35.21;14.02;98735.19;7341601;19;20493;-68
2023/04/22 09:46:23;;;;;;;3.63;3.33;;;;;;;36.43;13.43;98735.69;7341458;19;20346;-67
2023/04/22 09:48:48;;;;;;;5.50;3.40;;;;;;;37.41;13.06;98742.97;7347492;19;20085;-67
2023/04/22 09:51:15;;;;;;;5.25;3.72;;;;;;;38.13;12.86;98741.28;7352648;19;20065;-68
2023/04/22 09:53:40;;;;;;;9.35;4.63;;;;;;;38.40;12.37;98743.16;7347416;19;20025;-67
2023/04/22 09:56:05;;;;;;;5.07;4.25;;;;;;;37.10;13.14;98737.13;7350516;19;20019;-67
2023/04/22 09:58:30;;;;;;;14.48;4.20;;;;;;;34.86;14.18;98733.56;7349101;19;20730;-67
2023/04/22 10:00:57;;;;;;;8.35;3.95;;;;;;;34.08;15.18;98747.31;7345055;19;20017;-67
2023/04/22 10:03:22;;;;;;;6.93;3.60;;;;;;;33.38;15.29;98732.59;7341711;19;20014;-67
2023/04/22 10:05:47;;;;;;;5.63;3.63;;;;;;;32.03;15.83;98735.75;7343408;19;20035;-65
2023/04/22 10:08:14;;;;;;;5.13;2.85;;;;;;;30.56;16.51;98744.94;7341757;19;20033;-66
2023/04/22 10:10:39;;;;;;;5.10;3.45;;;;;;;28.98;17.67;98736.53;7342083;19;20021;-65
2023/04/22 10:13:05;;;;;;;7.28;3.47;;;;;;;27.37;18.81;98738.59;7343149;19;20011;-64
2023/04/22 10:15:51;;;;;;;9.13;3.75;;;;;;;26.98;19.19;98736.56;7343579;19;20473;-69
2023/04/22 10:18:21;;;;;;;4.07;3.10;;;;;;;25.58;20.28;98741.47;7345881;19;20449;-65
2023/04/22 10:20:47;;;;;;;7.03;3.92;;;;;;;24.89;21.12;98737.97;7348461;19;20038;-65
2023/04/22 10:23:17;;;;;;;4.72;3.05;;;;;;;24.55;21.27;98746.63;7347142;19;20066;-66
2023/04/22 10:25:41;;;;;;;10.93;3.30;;;;;;;24.01;21.51;98728.94;7348314;19;20535;-65
2023/04/22 10:28:09;;;;;;;5.00;3.15;;;;;;;23.56;22.28;98746.31;7347825;19;20015;-65
2023/04/22 10:30:37;;;;;;;10.73;3.00;;;;;;;23.03;22.38;98733.63;7347741;19;20019;-65
2023/04/22 10:33:20;;;;;;;6.25;2.90;;;;;;;22.96;22.63;98740.97;7346962;19;20041;-64
2023/04/22 10:36:22;;;;;;;5.68;3.25;;;;;;;22.42;22.97;98735.72;7347040;19;20019;-66
2023/04/22 10:38:53;;;;;;;4.32;2.45;;;;;;;21.70;23.43;98745.28;7348685;19;20019;-65
2023/04/22 10:41:25;;;;;;;5.13;3.08;;;;;;;21.11;24.33;98730.56;7347755;19;20458;-68
2023/04/22 10:43:59;;;;;;;4.55;2.90;;;;;;;20.69;24.46;98732.34;7346132;19;20022;-66
2023/04/22 10:46:33;;;;;;;5.18;3.53;;;;;;;20.25;25.04;98735.25;7345568;19;20361;-66
2023/04/22 10:48:59;;;;;;;5.43;3.13;;;;;;;19.79;25.48;98742.88;7345769;19;20050;-66
2023/04/22 10:51:39;;;;;;;4.88;3.13;;;;;;;19.80;24.76;98729.16;7347973;19;20026;-67
2023/04/22 10:54:04;;;;;;;5.10;3.33;;;;;;;19.63;25.49;98727.72;7348570;19;20014;-66
2023/04/22 10:56:29;;;;;;;6.00;3.08;;;;;;;19.72;25.10;98723.88;7345712;19;20025;-66
2023/04/22 10:58:55;;;;;;;2.70;2.50;;;;;;;19.71;25.21;98726.78;7343159;19;20025;-66
2023/04/22 11:01:20;;;;;;;5.22;3.25;;;;;;;19.68;25.33;98725.28;7346574;19;20019;-66
2023/04/22 11:03:44;;;;;;;6.50;3.03;;;;;;;19.63;25.95;98727.72;7347252;19;20042;-66
2023/04/22 11:06:29;;;;;;;7.15;3.70;;;;;;;19.80;25.46;98733.72;7348205;19;20513;-73
2023/04/22 11:09:11;;;;;;;7.38;3.50;;;;;;;19.56;26.15;98735.75;7346966;19;20014;-63
2023/04/22 11:11:36;;;;;;;5.13;2.33;;;;;;;19.38;26.21;98727.16;7344023;19;20046;-65
2023/04/22 11:14:01;;;;;;;6.82;2.95;;;;;;;19.57;25.95;98721.19;7345621;19;20015;-64
2023/04/22 11:16:26;;;;;;;4.20;3.10;;;;;;;19.67;25.07;98726.31;7349182;19;20023;-65
2023/04/22 11:18:51;;;;;;;4.20;2.80;;;;;;;19.55;25.45;98730.50;7346326;19;20018;-65
2023/04/22 11:21:17;;;;;;;2.75;2.40;;;;;;;19.39;25.54;98734.25;7347609;19;20018;-65
2023/04/22 11:23:52;;;;;;;4.53;2.58;;;;;;;19.35;25.66;98726.69;7348305;19;20126;-66
2023/04/22 11:26:17;;;;;;;3.10;2.28;;;;;;;19.20;26.10;98735.63;7344997;19;20010;-66
2023/04/22 11:28:45;;;;;;;7.80;2.78;;;;;;;19.35;25.81;98729.41;7345450;19;20009;-66
2023/04/22 11:31:11;;;;;;;5.05;2.72;;;;;;;19.28;25.90;98721.22;7343949;19;20027;-65
2023/04/22 11:33:37;;;;;;;4.38;2.33;;;;;;;19.33;25.76;98724.16;7344241;19;20018;-66